createdAt,value
2022-11-02T00:03:05.232Z,4.70
2022-11-02T00:06:48.060Z,5.57
2022-11-02T00:10:30.941Z,3.80
2022-11-02T00:14:15.111Z,10.37
2022-11-02T00:18:00.772Z,5.03
2022-11-02T00:21:43.759Z,3.70
2022-11-02T00:25:27.578Z,4.83
2022-11-02T00:29:10.486Z,5.40
2022-11-02T00:32:54.477Z,3.70
2022-11-02T00:36:37.088Z,6.87
2022-11-02T00:40:19.886Z,4.80
2022-11-02T00:44:02.719Z,6.30
2022-11-02T00:47:45.475Z,4.43
2022-11-02T00:51:29.524Z,8.57
2022-11-02T00:55:13.010Z,4.77
2022-11-02T00:58:55.645Z,4.47
2022-11-02T01:02:39.695Z,5.67
2022-11-02T01:06:22.575Z,4.73
2022-11-02T01:10:07.538Z,4.47
2022-11-02T01:13:52.169Z,8.60
2022-11-02T01:17:35.019Z,4.03
2022-11-02T01:21:17.672Z,5.57
2022-11-02T01:25:00.388Z,5.50
2022-11-02T01:28:51.984Z,3.90
2022-11-02T01:32:34.759Z,8.30
2022-11-02T01:40:09.826Z,6.83
2022-11-02T01:43:56.505Z,4.40
2022-11-02T01:47:40.067Z,5.77
2022-11-02T01:51:24.602Z,7.17
2022-11-02T01:55:12.104Z,5.20
2022-11-02T01:58:59.045Z,6.50
2022-11-02T02:02:46.749Z,6.40
2022-11-02T02:06:29.459Z,3.83
2022-11-02T02:10:12.948Z,3.27
2022-11-02T02:13:59.932Z,6.50
2022-11-02T02:17:46.708Z,8.20
2022-11-02T02:21:39.101Z,4.57
2022-11-02T02:25:27.918Z,6.27
2022-11-02T02:29:16.606Z,5.50
2022-11-02T02:33:03.110Z,6.00
2022-11-02T02:36:49.075Z,4.13
2022-11-02T02:40:35.525Z,5.33
2022-11-02T02:44:23.399Z,5.77
2022-11-02T02:48:14.626Z,6.93
2022-11-02T02:51:57.900Z,6.03
2022-11-02T02:55:44.072Z,5.27
2022-11-02T02:59:30.552Z,4.63
2022-11-02T03:03:18.494Z,6.93
2022-11-02T03:07:05.091Z,4.73
2022-11-02T03:10:49.841Z,9.37
2022-11-02T03:14:39.515Z,7.20
2022-11-02T03:18:33.604Z,8.53
2022-11-02T03:22:22.569Z,10.33
2022-11-02T03:26:09.529Z,7.90
2022-11-02T03:29:57.285Z,7.57
2022-11-02T03:33:44.221Z,10.13
2022-11-02T03:37:29.275Z,9.27
2022-11-02T03:41:12.621Z,8.50
2022-11-02T03:44:59.714Z,7.13
2022-11-02T03:48:44.911Z,6.90
2022-11-02T03:52:30.599Z,8.77
2022-11-02T03:56:17.503Z,7.47
2022-11-02T04:00:10.202Z,9.17
2022-11-02T04:03:52.888Z,8.30
2022-11-02T04:07:55.423Z,8.20
2022-11-02T04:11:58.495Z,8.57
2022-11-02T04:15:42.511Z,8.80
2022-11-02T04:19:31.153Z,11.07
2022-11-02T04:23:31.337Z,7.53
2022-11-02T04:27:18.105Z,10.13
2022-11-02T04:31:04.821Z,9.03
2022-11-02T04:34:46.553Z,7.77
2022-11-02T04:38:41.558Z,10.30
2022-11-02T04:42:24.332Z,10.47
2022-11-02T04:46:08.390Z,9.17
2022-11-02T04:49:51.047Z,8.67
2022-11-02T04:53:33.710Z,7.40
2022-11-02T04:57:16.407Z,8.03
2022-11-02T05:00:59.049Z,8.37
2022-11-02T05:04:43.119Z,6.53
2022-11-02T05:08:25.828Z,8.60
2022-11-02T05:12:08.667Z,6.73
2022-11-02T05:15:51.511Z,10.43
2022-11-02T05:19:34.144Z,11.30
2022-11-02T05:23:18.230Z,10.70
2022-11-02T05:27:00.973Z,6.07
2022-11-02T05:30:43.609Z,7.30
2022-11-02T05:34:26.568Z,10.43
2022-11-02T05:38:12.817Z,5.97
2022-11-02T05:41:56.818Z,7.73
2022-11-02T05:45:39.501Z,9.10
2022-11-02T05:49:22.116Z,6.90
2022-11-02T05:53:05.018Z,8.27
2022-11-02T05:56:48.246Z,6.30
2022-11-02T06:00:32.291Z,4.67
2022-11-02T06:04:14.972Z,5.17
2022-11-02T06:08:01.168Z,6.10
2022-11-02T06:11:44.124Z,8.80
2022-11-02T06:15:26.888Z,9.00
2022-11-02T06:19:11.303Z,8.70
2022-11-02T06:22:53.977Z,7.23
2022-11-02T06:26:36.627Z,7.23
2022-11-02T06:30:19.449Z,6.67
2022-11-02T06:34:02.075Z,8.23
2022-11-02T06:37:46.359Z,8.40
2022-11-02T06:41:28.976Z,6.50
2022-11-02T06:45:11.932Z,7.87
2022-11-02T06:48:55.092Z,7.17
2022-11-02T06:52:44.564Z,7.67
2022-11-02T06:56:28.546Z,6.70
2022-11-02T07:00:15.445Z,7.10
2022-11-02T07:04:00.604Z,8.80
2022-11-02T07:07:43.513Z,7.97
2022-11-02T07:11:26.464Z,9.17
2022-11-02T07:15:11.632Z,8.27
2022-11-02T07:18:54.470Z,13.13
2022-11-02T07:22:37.458Z,7.23
2022-11-02T07:26:20.086Z,9.30
2022-11-02T07:30:03.363Z,6.50
2022-11-02T07:33:47.570Z,9.20
2022-11-02T07:37:30.217Z,6.10
2022-11-02T07:41:12.953Z,6.57
2022-11-02T07:44:55.556Z,8.17
2022-11-02T07:48:38.216Z,17.63
2022-11-02T07:52:22.235Z,5.47
2022-11-02T07:56:08.440Z,10.60
2022-11-02T07:59:51.431Z,5.43
2022-11-02T08:03:34.090Z,8.93
2022-11-02T08:07:16.864Z,6.30
2022-11-02T08:11:05.685Z,8.53
2022-11-02T08:14:48.472Z,6.40
2022-11-02T08:18:31.345Z,4.97
2022-11-02T08:22:13.977Z,4.80
2022-11-02T08:26:01.330Z,6.13
2022-11-02T08:29:46.729Z,4.50
2022-11-02T08:33:29.457Z,5.83
2022-11-02T08:37:12.149Z,3.33
2022-11-02T08:40:56.171Z,4.73
2022-11-02T08:44:42.474Z,7.97
2022-11-02T08:48:25.529Z,6.97
2022-11-02T08:52:08.184Z,8.43
2022-11-02T08:55:50.831Z,6.17
2022-11-02T08:59:33.398Z,6.60
2022-11-02T09:03:21.917Z,5.03
2022-11-02T09:07:07.850Z,8.27
2022-11-02T09:10:51.933Z,6.73
2022-11-02T09:14:34.623Z,6.83
2022-11-02T09:18:18.660Z,6.70
2022-11-02T09:22:05.517Z,5.43
2022-11-02T09:25:49.000Z,6.67
2022-11-02T09:29:31.669Z,3.07
2022-11-02T09:33:14.596Z,5.90
2022-11-02T09:36:59.572Z,4.23
2022-11-02T09:40:44.316Z,5.37
2022-11-02T09:44:30.162Z,8.13
2022-11-02T09:48:20.950Z,5.63
2022-11-02T09:52:14.434Z,6.33
2022-11-02T09:56:00.231Z,7.17
2022-11-02T09:59:42.999Z,4.33
2022-11-02T10:03:35.727Z,6.63
2022-11-02T10:07:29.773Z,5.07
2022-11-02T10:11:23.639Z,5.33
2022-11-02T10:15:10.193Z,10.40
2022-11-02T10:18:53.490Z,8.60
2022-11-02T10:22:40.106Z,8.20
2022-11-02T10:26:24.963Z,6.80
2022-11-02T10:30:12.115Z,8.70
2022-11-02T10:33:57.968Z,9.60
2022-11-02T10:37:56.723Z,6.57
2022-11-02T10:41:52.312Z,7.43
2022-11-02T10:45:46.280Z,5.57
2022-11-02T10:49:47.163Z,8.73
2022-11-02T10:53:41.036Z,4.27
2022-11-02T10:57:25.743Z,22.30
2022-11-02T11:01:09.957Z,33.50
2022-11-02T11:04:52.696Z,6.73
2022-11-02T11:08:40.861Z,7.90
2022-11-02T11:12:27.854Z,5.77
2022-11-02T11:16:14.783Z,7.63
2022-11-02T11:20:06.022Z,13.90
2022-11-02T11:23:51.491Z,5.20
2022-11-02T11:27:45.723Z,8.87
2022-11-02T11:31:28.394Z,4.30
2022-11-02T11:35:17.300Z,5.63
2022-11-02T11:39:03.451Z,4.30
2022-11-02T11:42:46.289Z,3.37
2022-11-02T11:46:40.446Z,6.80
2022-11-02T11:50:27.324Z,7.23
2022-11-02T11:54:23.184Z,5.90
2022-11-02T11:58:07.946Z,4.57
2022-11-02T12:01:52.104Z,2.97
2022-11-02T12:05:42.636Z,4.00
2022-11-02T12:09:31.321Z,4.27
2022-11-02T12:13:23.580Z,4.53
2022-11-02T12:17:29.504Z,5.53
2022-11-02T12:21:24.194Z,8.80
2022-11-02T12:25:21.722Z,5.03
2022-11-02T12:29:17.074Z,3.43
2022-11-02T12:33:07.604Z,5.63
2022-11-02T12:41:05.844Z,4.40
2022-11-02T12:45:05.846Z,5.63
2022-11-02T12:48:56.358Z,6.37
2022-11-02T12:52:48.283Z,3.63
2022-11-02T12:56:35.813Z,6.00
2022-11-02T13:00:21.103Z,6.63
2022-11-02T13:04:11.813Z,6.40
2022-11-02T13:08:03.055Z,4.97
2022-11-02T13:11:51.253Z,6.87
2022-11-02T13:15:35.597Z,8.27
2022-11-02T13:19:21.478Z,5.10
2022-11-02T13:23:09.243Z,4.47
2022-11-02T13:26:57.604Z,3.83
2022-11-02T13:30:50.580Z,4.70
2022-11-02T13:34:36.016Z,2.93
2022-11-02T13:38:28.252Z,4.77
2022-11-02T13:42:39.018Z,5.03
2022-11-02T13:46:48.588Z,3.87
2022-11-02T13:50:32.790Z,5.60
2022-11-02T13:54:18.593Z,3.73
2022-11-02T13:58:03.125Z,3.93
2022-11-02T14:01:46.533Z,2.93
2022-11-02T14:05:32.380Z,3.40
2022-11-02T14:09:25.043Z,2.07
2022-11-02T14:13:13.208Z,3.67
2022-11-02T14:17:13.921Z,5.80
2022-11-02T14:20:56.719Z,4.03
2022-11-02T14:24:56.184Z,4.83
2022-11-02T14:28:44.347Z,3.33
2022-11-02T14:32:43.511Z,3.83
2022-11-02T14:36:41.810Z,4.10
2022-11-02T14:40:29.514Z,5.90
2022-11-02T14:44:40.816Z,2.27
2022-11-02T14:48:31.962Z,3.90
2022-11-02T14:52:24.130Z,7.37
2022-11-02T14:56:07.407Z,5.40
2022-11-02T14:59:56.036Z,4.97
2022-11-02T15:03:41.281Z,4.73
2022-11-02T15:07:27.300Z,5.53
2022-11-02T15:11:43.490Z,5.10
2022-11-02T15:15:35.231Z,6.20
2022-11-02T15:19:41.057Z,6.13
2022-11-02T15:23:31.370Z,4.40
2022-11-02T15:27:14.835Z,4.00
2022-11-02T15:31:01.000Z,14.53
2022-11-02T15:34:45.893Z,6.30
2022-11-02T15:38:35.229Z,7.93
2022-11-02T15:42:27.371Z,10.80
2022-11-02T15:46:15.112Z,3.67
2022-11-02T15:50:18.158Z,15.07
2022-11-02T15:54:14.495Z,9.30
2022-11-02T15:58:02.596Z,7.47
2022-11-02T16:01:48.392Z,6.03
2022-11-02T16:05:33.638Z,4.67
2022-11-02T16:09:31.957Z,9.03
2022-11-02T16:13:17.799Z,5.17
2022-11-02T16:17:01.888Z,12.70
2022-11-02T16:20:46.442Z,36.80
2022-11-02T16:24:29.233Z,18.57
2022-11-02T16:28:18.745Z,12.20
2022-11-02T16:32:03.529Z,9.90
2022-11-02T16:35:46.448Z,9.33
2022-11-02T16:39:31.807Z,11.97
2022-11-02T16:43:15.330Z,8.43
2022-11-02T16:46:59.904Z,10.00
2022-11-02T16:51:01.597Z,13.10
2022-11-02T16:54:45.478Z,7.63
2022-11-02T16:58:28.615Z,7.60
2022-11-02T17:02:13.292Z,8.13
2022-11-02T17:05:57.988Z,11.33
2022-11-02T17:09:41.298Z,9.50
2022-11-02T17:13:25.399Z,14.97
2022-11-02T17:17:10.916Z,13.73
2022-11-02T17:21:29.908Z,19.00
2022-11-02T17:25:14.548Z,15.90
2022-11-02T17:29:01.421Z,18.43
2022-11-02T17:32:44.169Z,16.30
2022-11-02T17:36:27.367Z,21.97
2022-11-02T17:40:13.021Z,16.10
2022-11-02T17:43:55.686Z,14.93
2022-11-02T17:47:38.305Z,16.87
2022-11-02T17:51:24.842Z,14.93
2022-11-02T17:55:10.748Z,29.33
2022-11-02T17:58:54.756Z,16.83
2022-11-02T18:02:37.608Z,18.40
2022-11-02T18:06:20.314Z,15.40
2022-11-02T18:10:03.469Z,11.23
2022-11-02T18:13:46.147Z,14.47
2022-11-02T18:17:34.811Z,17.77
2022-11-02T18:21:17.839Z,18.37
2022-11-02T18:25:03.280Z,17.93
2022-11-02T18:28:45.913Z,18.27
2022-11-02T18:32:30.042Z,15.97
2022-11-02T18:36:12.694Z,16.00
2022-11-02T18:39:55.542Z,39.97
2022-11-02T18:43:38.427Z,94.40
2022-11-02T18:47:21.192Z,120.30
2022-11-02T18:51:05.637Z,48.37
2022-11-02T18:54:48.442Z,37.27
2022-11-02T18:58:31.168Z,28.37
2022-11-02T19:02:14.171Z,17.40
2022-11-02T19:06:15.583Z,14.33
2022-11-02T19:10:02.478Z,15.97
2022-11-02T19:13:46.542Z,18.37
2022-11-02T19:17:29.339Z,16.30
2022-11-02T19:21:12.069Z,15.70
2022-11-02T19:24:54.847Z,18.77
2022-11-02T19:28:39.227Z,28.03
2022-11-02T19:32:22.322Z,17.03
2022-11-02T19:36:07.125Z,12.47
2022-11-02T19:39:50.033Z,12.00
2022-11-02T19:43:33.262Z,14.17
2022-11-02T19:47:17.280Z,10.03
2022-11-02T19:51:06.325Z,10.03
2022-11-02T19:54:49.022Z,10.10
2022-11-02T19:58:31.867Z,11.43
2022-11-02T20:02:15.013Z,11.47
2022-11-02T20:06:03.651Z,25.83
2022-11-02T20:09:46.509Z,19.80
2022-11-02T20:13:29.204Z,17.10
2022-11-02T20:17:30.276Z,16.63
2022-11-02T20:21:19.941Z,13.30
2022-11-02T20:25:02.721Z,10.97
2022-11-02T20:28:48.929Z,10.00
2022-11-02T20:32:31.780Z,10.53
2022-11-02T20:36:15.928Z,14.83
2022-11-02T20:39:58.638Z,19.40
2022-11-02T20:43:42.719Z,10.60
2022-11-02T20:47:25.372Z,9.17
2022-11-02T20:51:08.316Z,9.60
2022-11-02T20:54:52.439Z,12.03
2022-11-02T20:58:35.148Z,11.40
2022-11-02T21:02:17.949Z,15.80
2022-11-02T21:06:03.679Z,12.07
2022-11-02T21:09:46.780Z,10.37
2022-11-02T21:13:48.643Z,13.37
2022-11-02T21:17:31.311Z,13.33
2022-11-02T21:21:15.951Z,12.73
2022-11-02T21:24:58.630Z,9.50
2022-11-02T21:28:44.724Z,12.17
2022-11-02T21:32:27.534Z,12.80
2022-11-02T21:36:11.013Z,11.37
2022-11-02T21:39:53.732Z,10.77
2022-11-02T21:43:37.460Z,18.77
2022-11-02T21:47:21.528Z,9.80
2022-11-02T21:51:08.714Z,48.10
2022-11-02T21:54:51.367Z,14.40
2022-11-02T21:58:34.324Z,8.53
2022-11-02T22:02:18.578Z,10.90
2022-11-02T22:06:02.784Z,9.00
2022-11-02T22:09:45.591Z,11.43
2022-11-02T22:13:34.112Z,16.73
2022-11-02T22:17:35.359Z,14.63
2022-11-02T22:21:22.891Z,8.93
2022-11-02T22:25:06.226Z,9.27
2022-11-02T22:28:49.660Z,9.80
2022-11-02T22:32:32.277Z,9.70
2022-11-02T22:36:16.757Z,7.43
2022-11-02T22:40:02.961Z,11.40
2022-11-02T22:43:45.874Z,9.80
2022-11-02T22:47:28.683Z,13.97
2022-11-02T22:51:11.680Z,7.10
2022-11-02T22:54:54.332Z,10.33
2022-11-02T22:58:39.248Z,12.40
2022-11-02T23:02:22.355Z,14.17
2022-11-02T23:06:07.121Z,15.37
2022-11-02T23:09:49.890Z,10.63
2022-11-02T23:13:32.599Z,26.10
2022-11-02T23:17:16.639Z,12.37
2022-11-02T23:20:59.300Z,9.60
2022-11-02T23:25:01.277Z,8.93
2022-11-02T23:29:01.873Z,12.30
2022-11-02T23:32:45.904Z,17.63
2022-11-02T23:36:31.212Z,14.83
2022-11-02T23:40:15.614Z,12.63
2022-11-02T23:44:12.512Z,12.13
2022-11-02T23:48:00.768Z,13.47
2022-11-02T23:52:01.530Z,7.27
2022-11-02T23:56:01.819Z,12.17
2022-11-02T23:59:44.447Z,9.17
